Time;durP1;ratioP1;P1;durP2;ratioP2;P2;SDS_P1;SDS_P2;PMS_P1;PMS_P2;Temp;Humidity;BMP_temperature;BMP_pressure;BME280_temperature;BME280_humidity;BME280_pressure;Samples;Min_cycle;Max_cycle;Signal;HPM_P1;HPM_P2
2021/09/25 00:01:34;;;;;;;6.13;3.63;;;;;;;16.00;100.00;101124.38;6324322;28;20048;-79
2021/09/25 00:04:35;;;;;;;7.03;4.03;;;;;;;15.99;100.00;101128.00;6324106;28;20051;-77
2021/09/25 00:07:36;;;;;;;6.75;3.97;;;;;;;16.00;100.00;101120.88;6324383;28;20048;-79
2021/09/25 00:10:38;;;;;;;4.57;2.83;;;;;;;15.96;100.00;101118.44;6324438;28;20059;-79
2021/09/25 00:13:41;;;;;;;7.78;4.10;;;;;;;15.95;100.00;101127.34;6324707;28;20055;-79
2021/09/25 00:16:42;;;;;;;12.15;4.18;;;;;;;15.96;100.00;101118.44;6323592;28;20040;-79
2021/09/25 00:19:43;;;;;;;7.07;3.78;;;;;;;16.01;100.00;101126.06;6324419;28;20055;-80
2021/09/25 00:22:45;;;;;;;14.65;3.85;;;;;;;15.93;100.00;101123.94;6324790;28;20057;-79
2021/09/25 00:25:46;;;;;;;6.25;3.95;;;;;;;15.92;100.00;101124.91;6325410;28;20055;-79
2021/09/25 00:28:49;;;;;;;5.75;3.25;;;;;;;15.90;100.00;101131.28;6325327;28;20487;-79
2021/09/25 00:31:50;;;;;;;9.00;4.25;;;;;;;15.89;100.00;101126.91;6324706;28;20052;-79
2021/09/25 00:34:52;;;;;;;6.93;4.43;;;;;;;15.88;100.00;101136.66;6324638;28;20059;-79
2021/09/25 00:37:53;;;;;;;6.40;3.45;;;;;;;15.89;100.00;101124.25;6325134;28;20051;-80
2021/09/25 00:40:55;;;;;;;10.98;4.38;;;;;;;15.87;100.00;101132.31;6324527;28;20051;-79
2021/09/25 00:43:57;;;;;;;6.05;4.10;;;;;;;15.85;100.00;101130.72;6323379;28;20048;-79
2021/09/25 00:46:59;;;;;;;7.25;3.78;;;;;;;15.86;100.00;101130.63;6323912;28;20047;-77
2021/09/25 00:50:00;;;;;;;7.07;3.72;;;;;;;15.87;100.00;101132.31;6323132;28;20055;-79
2021/09/25 00:53:02;;;;;;;7.40;3.78;;;;;;;15.86;100.00;101130.63;6324281;28;20402;-79
2021/09/25 00:56:05;;;;;;;9.07;3.15;;;;;;;15.84;100.00;101129.03;6323205;28;20055;-79
2021/09/25 00:59:08;;;;;;;5.28;3.40;;;;;;;15.87;100.00;101136.78;6323626;28;20510;-79
2021/09/25 01:02:11;;;;;;;6.03;3.38;;;;;;;15.85;100.00;101138.69;6324503;28;20052;-80
2021/09/25 01:05:15;;;;;;;12.00;4.07;;;;;;;15.82;100.00;101129.16;6322957;28;20052;-77
2021/09/25 01:08:22;;;;;;;10.60;4.05;;;;;;;15.84;100.00;101131.69;6324078;28;20457;-79
2021/09/25 01:11:25;;;;;;;7.28;3.63;;;;;;;15.85;100.00;101138.69;6323244;28;20055;-77
2021/09/25 01:14:30;;;;;;;8.65;3.30;;;;;;;15.86;100.00;101133.28;6325496;22;20044;-80
2021/09/25 01:17:32;;;;;;;6.50;3.33;;;;;;;15.80;100.00;101131.03;6298575;28;20052;-80
2021/09/25 01:20:33;;;;;;;7.15;4.07;;;;;;;15.79;100.00;101136.47;6299399;28;20049;-82
2021/09/25 01:23:37;;;;;;;10.57;4.25;;;;;;;15.76;100.00;101150.78;6298448;28;20049;-82
2021/09/25 01:26:39;;;;;;;6.55;4.10;;;;;;;15.78;100.00;101135.63;6290975;28;20044;-82
2021/09/25 01:29:40;;;;;;;7.03;3.85;;;;;;;15.71;100.00;101135.19;6283224;28;20049;-81
2021/09/25 01:32:42;;;;;;;7.45;3.10;;;;;;;15.75;100.00;101134.97;6286263;28;20044;-83
2021/09/25 01:35:43;;;;;;;8.45;3.58;;;;;;;15.78;100.00;101138.25;6283769;28;20443;-81
2021/09/25 01:38:47;;;;;;;7.07;3.55;;;;;;;15.81;100.00;101139.88;6285105;28;20051;-82
2021/09/25 01:41:48;;;;;;;5.75;3.58;;;;;;;15.78;100.00;101132.13;6279858;28;20056;-83
2021/09/25 01:44:52;;;;;;;7.57;3.15;;;;;;;15.75;100.00;101137.63;6273292;28;20049;-82
2021/09/25 01:47:55;;;;;;;5.07;3.17;;;;;;;15.76;100.00;101144.59;6273074;28;20059;-82
2021/09/25 01:50:56;;;;;;;6.82;3.03;;;;;;;15.75;100.00;101141.13;6273580;28;20051;-82
2021/09/25 01:53:59;;;;;;;5.47;3.15;;;;;;;15.74;100.00;101136.78;6272923;28;20064;-82
2021/09/25 01:57:01;;;;;;;5.00;3.20;;;;;;;15.76;100.00;101144.59;6273735;28;20064;-81
2021/09/25 02:00:03;;;;;;;5.63;3.22;;;;;;;15.79;100.00;101149.72;6273191;28;20056;-83
2021/09/25 02:03:08;;;;;;;4.28;2.78;;;;;;;15.79;100.00;101147.91;6274693;28;20045;-83
2021/09/25 02:06:11;;;;;;;5.60;2.92;;;;;;;15.78;100.00;101148.88;6273187;28;20053;-82
2021/09/25 02:09:14;;;;;;;8.73;3.17;;;;;;;15.79;100.00;101161.16;6272671;28;20082;-82
2021/09/25 02:12:16;;;;;;;6.47;3.40;;;;;;;15.82;100.00;101155.66;6273211;28;20049;-81
2021/09/25 02:15:17;;;;;;;5.35;2.50;;;;;;;15.82;100.00;101150.34;6273741;28;20067;-82
2021/09/25 02:18:18;;;;;;;4.90;2.90;;;;;;;15.80;100.00;101154.06;6273488;28;20041;-82
2021/09/25 02:21:20;;;;;;;5.05;3.00;;;;;;;15.84;100.00;101152.88;6278168;28;20049;-84
2021/09/25 02:24:22;;;;;;;5.13;2.88;;;;;;;15.80;100.00;101151.41;6276850;28;20052;-83
2021/09/25 02:27:24;;;;;;;6.70;3.38;;;;;;;15.84;100.00;101140.47;6279216;28;20045;-82
2021/09/25 02:30:26;;;;;;;5.32;3.25;;;;;;;15.79;100.00;101134.66;6272092;28;20060;-82
2021/09/25 02:33:28;;;;;;;6.32;2.85;;;;;;;15.79;100.00;101139.09;6271910;28;20063;-81
2021/09/25 02:36:29;;;;;;;4.07;2.42;;;;;;;15.77;100.00;101148.97;6271730;28;20048;-81
2021/09/25 02:39:33;;;;;;;6.78;3.85;;;;;;;15.80;100.00;101146.94;6273368;28;20416;-79
2021/09/25 02:42:35;;;;;;;6.78;3.28;;;;;;;15.78;100.00;101137.41;6271698;28;20052;-81
2021/09/25 02:45:36;;;;;;;4.43;3.25;;;;;;;15.78;100.00;101140.91;6272550;28;20052;-86
2021/09/25 02:48:38;;;;;;;5.75;2.90;;;;;;;15.78;100.00;101146.22;6274011;28;20052;-82
2021/09/25 02:51:39;;;;;;;5.38;2.95;;;;;;;15.80;100.00;101151.41;6273059;28;20053;-82
2021/09/25 02:54:42;;;;;;;3.92;2.65;;;;;;;15.78;100.00;101146.22;6272279;28;20052;-82
2021/09/25 02:57:44;;;;;;;4.68;2.88;;;;;;;15.79;100.00;101142.59;6280137;28;20493;-83
2021/09/25 03:00:45;;;;;;;8.98;3.45;;;;;;;15.80;100.00;101146.09;6273092;28;20045;-82
2021/09/25 03:03:47;;;;;;;5.38;2.80;;;;;;;15.76;100.00;101148.13;6271999;28;20127;-81
2021/09/25 03:06:48;;;;;;;3.95;2.28;;;;;;;15.75;100.00;101142.91;6273065;28;20396;-82
2021/09/25 03:09:51;;;;;;;6.53;2.92;;;;;;;15.74;100.00;101144.72;6271748;28;20661;-82
2021/09/25 03:12:52;;;;;;;5.47;2.95;;;;;;;15.71;100.00;101140.50;6271418;28;20049;-81
2021/09/25 03:15:54;;;;;;;6.30;3.13;;;;;;;15.70;100.00;101138.78;6273124;28;20049;-81
2021/09/25 03:18:55;;;;;;;7.60;3.10;;;;;;;15.72;100.00;101141.34;6274785;28;20049;-83
2021/09/25 03:21:56;;;;;;;5.75;3.40;;;;;;;15.68;100.00;101145.16;6276570;28;20056;-82
2021/09/25 03:25:00;;;;;;;4.00;2.65;;;;;;;15.70;100.00;101137.94;6277489;28;20056;-82
2021/09/25 03:28:01;;;;;;;5.05;2.92;;;;;;;15.70;100.00;101141.44;6270806;28;20041;-84
2021/09/25 03:31:03;;;;;;;7.22;4.25;;;;;;;15.66;100.00;101147.88;6279100;28;20056;-82
2021/09/25 03:34:06;;;;;;;4.85;3.28;;;;;;;15.65;100.00;101146.19;6275133;28;20430;-82
2021/09/25 03:37:07;;;;;;;5.57;3.30;;;;;;;15.62;100.00;101145.53;6276935;28;20059;-80
2021/09/25 03:40:11;;;;;;;5.60;3.20;;;;;;;15.62;100.00;101151.66;6276455;28;20393;-82
2021/09/25 03:43:13;;;;;;;4.57;2.95;;;;;;;15.62;100.00;101146.38;6275580;28;20053;-82
2021/09/25 03:46:14;;;;;;;6.22;2.88;;;;;;;15.62;100.00;101153.47;6275016;28;20064;-81
2021/09/25 03:49:16;;;;;;;4.60;3.08;;;;;;;15.62;100.00;101143.72;6275213;28;20389;-81
2021/09/25 03:52:17;;;;;;;5.88;3.25;;;;;;;15.60;100.00;101158.88;6275510;28;20052;-81
2021/09/25 03:55:20;;;;;;;6.45;3.30;;;;;;;15.64;100.00;101157.75;6274726;28;20052;-81
2021/09/25 03:58:21;;;;;;;8.00;3.33;;;;;;;15.60;100.00;101158.03;6275093;28;20416;-82
2021/09/25 04:01:22;;;;;;;5.15;2.67;;;;;;;15.60;100.00;101153.59;6275207;28;20044;-82
2021/09/25 04:04:24;;;;;;;5.45;3.03;;;;;;;15.58;100.00;101149.31;6274715;28;20049;-81
2021/09/25 04:07:25;;;;;;;6.20;3.10;;;;;;;15.58;100.00;101138.72;6274822;28;20056;-81
2021/09/25 04:10:28;;;;;;;6.50;2.95;;;;;;;15.58;100.00;101144.91;6275404;28;20392;-82
2021/09/25 04:13:29;;;;;;;7.75;3.42;;;;;;;15.60;100.00;101160.69;6274456;28;20049;-83
2021/09/25 04:16:31;;;;;;;5.32;3.20;;;;;;;15.54;100.00;101159.31;6274986;28;20515;-82
2021/09/25 04:19:32;;;;;;;7.97;3.83;;;;;;;15.53;100.00;101162.03;6275070;28;20048;-82
2021/09/25 04:22:33;;;;;;;4.35;2.50;;;;;;;15.50;100.00;101157.81;6274728;28;20056;-82
2021/09/25 04:25:36;;;;;;;4.93;3.42;;;;;;;15.48;100.00;101159.69;6275095;28;20067;-82
2021/09/25 04:28:37;;;;;;;5.95;3.38;;;;;;;15.48;100.00;101157.91;6274562;28;20045;-81
2021/09/25 04:31:40;;;;;;;5.07;3.08;;;;;;;15.47;100.00;101163.31;6274440;28;20492;-82
2021/09/25 04:34:41;;;;;;;7.07;3.70;;;;;;;15.47;100.00;101165.97;6274078;28;20080;-82
2021/09/25 04:37:42;;;;;;;11.60;4.05;;;;;;;15.45;100.00;101165.22;6276518;28;20451;-83
2021/09/25 04:40:45;;;;;;;8.07;4.22;;;;;;;15.46;100.00;101174.88;6274692;28;20045;-81
2021/09/25 04:43:46;;;;;;;6.10;3.20;;;;;;;15.45;100.00;101170.53;6274481;28;20051;-81
2021/09/25 04:46:48;;;;;;;6.40;3.88;;;;;;;15.43;100.00;101173.25;6273822;28;20052;-82
2021/09/25 04:49:49;;;;;;;7.28;3.70;;;;;;;15.44;100.00;101169.69;6273841;28;20049;-81
2021/09/25 04:52:50;;;;;;;6.03;2.83;;;;;;;15.44;100.00;101172.31;6274213;28;20420;-82
2021/09/25 04:55:53;;;;;;;8.13;3.75;;;;;;;15.43;100.00;101175.91;6274131;28;20052;-82
2021/09/25 04:58:54;;;;;;;7.57;3.80;;;;;;;15.42;100.00;101174.22;6274254;28;20052;-81
2021/09/25 05:01:56;;;;;;;6.68;3.38;;;;;;;15.43;100.00;101175.06;6274011;28;20056;-82
2021/09/25 05:04:57;;;;;;;7.32;4.15;;;;;;;15.41;100.00;101174.31;6273647;28;20060;-82
2021/09/25 05:07:58;;;;;;;11.20;5.35;;;;;;;15.40;100.00;101170.00;6273660;28;20045;-81
2021/09/25 05:11:01;;;;;;;6.45;3.88;;;;;;;15.39;100.00;101170.91;6274003;28;20060;-82
2021/09/25 05:14:03;;;;;;;7.57;4.50;;;;;;;15.40;100.00;101183.22;6285088;28;20637;-82
2021/09/25 05:17:05;;;;;;;5.30;3.38;;;;;;;15.41;100.00;101177.81;6283024;28;20059;-79
2021/09/25 05:20:08;;;;;;;7.93;3.85;;;;;;;15.41;100.00;101177.81;6272859;28;20045;-82
2021/09/25 05:23:10;;;;;;;8.13;4.22;;;;;;;15.42;100.00;101181.31;6272821;28;20056;-81
2021/09/25 05:26:12;;;;;;;7.45;4.45;;;;;;;15.41;100.00;101184.91;6273369;28;20512;-81
2021/09/25 05:29:16;;;;;;;6.78;3.67;;;;;;;15.41;100.00;101192.88;6273662;28;20041;-80
2021/09/25 05:32:17;;;;;;;5.05;3.40;;;;;;;15.43;100.00;101196.25;6274708;28;20497;-81
2021/09/25 05:35:18;;;;;;;7.30;3.45;;;;;;;15.50;100.00;101202.84;6273595;28;20511;-81
2021/09/25 05:38:20;;;;;;;7.28;4.15;;;;;;;15.43;100.00;101199.75;6273335;28;20057;-81
2021/09/25 05:41:22;;;;;;;7.80;3.97;;;;;;;15.45;100.00;101203.16;6273865;28;20447;-82
2021/09/25 05:44:24;;;;;;;6.20;4.03;;;;;;;15.46;100.00;101206.66;6276421;28;20052;-81
2021/09/25 05:47:26;;;;;;;7.03;4.05;;;;;;;15.45;100.00;101212.91;6294267;28;20052;-82
2021/09/25 05:50:28;;;;;;;5.50;3.58;;;;;;;15.45;100.00;101216.41;6300588;28;20044;-81
2021/09/25 05:53:29;;;;;;;6.22;3.72;;;;;;;15.46;100.00;101215.44;6297661;28;20492;-81
2021/09/25 05:56:32;;;;;;;7.88;3.75;;;;;;;15.46;100.00;101214.59;6298058;28;20056;-82
2021/09/25 05:59:34;;;;;;;6.13;3.95;;;;;;;15.47;100.00;101213.63;6298986;28;20048;-81
2021/09/25 06:02:38;;;;;;;6.20;3.92;;;;;;;15.44;100.00;101217.34;6297181;28;20060;-77
2021/09/25 06:05:39;;;;;;;8.07;3.97;;;;;;;15.45;100.00;101219.03;6296859;28;20045;-79
2021/09/25 06:08:40;;;;;;;11.10;4.28;;;;;;;15.46;100.00;101217.25;6299168;28;20056;-82
2021/09/25 06:11:43;;;;;;;11.30;4.28;;;;;;;15.44;100.00;101214.72;6297596;28;20051;-80
2021/09/25 06:14:45;;;;;;;18.20;6.13;;;;;;;15.43;100.00;101220.09;6296477;28;20056;-81
2021/09/25 06:17:47;;;;;;;9.57;4.78;;;;;;;15.43;100.00;101207.69;6297246;28;20048;-80
2021/09/25 06:20:48;;;;;;;5.05;3.88;;;;;;;15.45;100.00;101211.09;6296744;28;20049;-80
2021/09/25 06:23:49;;;;;;;8.15;4.20;;;;;;;15.46;100.00;101215.44;6289779;28;20052;-81
2021/09/25 06:26:52;;;;;;;7.13;3.80;;;;;;;15.47;100.00;101221.59;6281965;28;20049;-80
2021/09/25 06:29:53;;;;;;;11.02;4.32;;;;;;;15.51;100.00;101217.78;6279112;28;20053;-81
2021/09/25 06:32:56;;;;;;;9.98;4.15;;;;;;;15.50;100.00;101223.19;6286086;28;20044;-82
2021/09/25 06:35:57;;;;;;;9.30;4.20;;;;;;;15.51;100.00;101223.09;6273006;28;20637;-80
2021/09/25 06:38:59;;;;;;;7.32;3.75;;;;;;;15.46;100.00;101218.09;6274654;28;20052;-81
2021/09/25 06:42:02;;;;;;;7.38;4.00;;;;;;;15.48;100.00;101223.28;6294587;28;20048;-80
2021/09/25 06:45:03;;;;;;;6.47;3.90;;;;;;;15.50;100.00;101224.03;6296508;28;20518;-81
2021/09/25 06:48:05;;;;;;;6.28;4.35;;;;;;;15.51;100.00;101232.84;6296663;28;20055;-81
2021/09/25 06:51:07;;;;;;;9.88;4.20;;;;;;;15.52;100.00;101232.72;6296996;28;20045;-81
2021/09/25 06:54:08;;;;;;;6.85;3.67;;;;;;;15.49;100.00;101243.53;6297356;28;20056;-80
2021/09/25 06:57:11;;;;;;;7.93;4.05;;;;;;;15.55;100.00;101242.28;6299881;28;20048;-80
2021/09/25 07:00:13;;;;;;;11.27;3.97;;;;;;;15.57;100.00;101238.56;6301025;28;20044;-81
2021/09/25 07:03:17;;;;;;;8.57;3.75;;;;;;;15.58;100.00;101242.06;6298614;28;20059;-81
2021/09/25 07:06:18;;;;;;;7.97;4.38;;;;;;;15.60;100.00;101250.75;6287913;28;20428;-80
2021/09/25 07:09:19;;;;;;;9.43;3.92;;;;;;;15.62;100.00;101252.34;6284777;28;20511;-79
2021/09/25 07:12:22;;;;;;;6.25;3.70;;;;;;;15.64;100.00;101242.53;6288386;28;20041;-77
2021/09/25 07:15:24;;;;;;;9.63;4.70;;;;;;;15.69;100.00;101240.44;6345657;22;20052;-84
2021/09/25 07:18:25;;;;;;;6.82;3.70;;;;;;;15.71;100.00;101256.22;6342629;28;20073;-84
2021/09/25 07:21:26;;;;;;;9.50;4.00;;;;;;;15.75;100.00;101254.22;6346391;28;20513;-83
2021/09/25 07:24:27;;;;;;;8.98;4.13;;;;;;;15.75;100.00;101251.56;6324425;28;20048;-84
2021/09/25 07:27:30;;;;;;;6.80;3.83;;;;;;;15.77;100.00;101266.44;6302954;28;20056;-82
2021/09/25 07:30:32;;;;;;;6.95;3.72;;;;;;;15.85;100.00;101271.19;6303603;28;20051;-86
2021/09/25 07:33:33;;;;;;;9.10;4.57;;;;;;;15.90;100.00;101277.06;6302813;28;20060;-81
2021/09/25 07:36:35;;;;;;;8.38;3.67;;;;;;;15.88;100.00;101268.34;6305416;28;20044;-84
2021/09/25 07:39:36;;;;;;;10.40;4.63;;;;;;;15.92;100.00;101273.34;6302401;28;20048;-83
2021/09/25 07:42:39;;;;;;;9.25;4.15;;;;;;;15.94;100.00;101273.22;6302470;28;20059;-82
2021/09/25 07:45:40;;;;;;;11.85;5.05;;;;;;;15.97;100.00;101276.53;6301796;28;20048;-83
2021/09/25 07:48:42;;;;;;;13.60;3.92;;;;;;;16.11;100.00;101288.84;6303218;28;20497;-84
2021/09/25 07:51:43;;;;;;;7.65;4.28;;;;;;;16.09;100.00;101284.63;6304198;28;20049;-84
2021/09/25 07:54:44;;;;;;;8.10;4.13;;;;;;;16.11;100.00;101286.19;6301508;28;20510;-83
2021/09/25 07:57:47;;;;;;;7.47;4.03;;;;;;;16.14;100.00;101288.66;6305335;28;20051;-83
2021/09/25 08:00:51;;;;;;;8.00;3.70;;;;;;;16.14;100.00;101298.41;6304021;28;20045;-82
2021/09/25 08:03:52;;;;;;;9.52;4.47;;;;;;;16.19;100.00;101305.09;6315371;28;20059;-82
2021/09/25 08:06:53;;;;;;;10.10;4.30;;;;;;;16.23;100.00;101311.88;6314351;28;20056;-83
2021/09/25 08:09:55;;;;;;;8.77;4.63;;;;;;;16.26;100.00;101308.19;6316937;28;20044;-82
2021/09/25 08:12:57;;;;;;;11.95;4.38;;;;;;;16.32;100.00;101315.72;6305020;28;20098;-84
2021/09/25 08:15:59;;;;;;;7.82;4.05;;;;;;;16.37;100.00;101316.25;6308445;28;20059;-84
2021/09/25 08:19:00;;;;;;;13.90;4.20;;;;;;;16.45;100.00;101316.59;6326881;28;20052;-84
2021/09/25 08:22:01;;;;;;;8.45;4.03;;;;;;;16.53;100.00;101320.50;6326037;28;20052;-83
2021/09/25 08:25:03;;;;;;;5.97;3.75;;;;;;;16.68;100.00;101327.41;6325707;28;20048;-82
2021/09/25 08:28:06;;;;;;;5.60;3.05;;;;;;;16.63;100.00;101324.22;6325911;28;20048;-82
2021/09/25 08:31:08;;;;;;;5.47;3.05;;;;;;;16.55;100.00;101335.38;6319748;28;20514;-82
2021/09/25 08:34:09;;;;;;;6.00;3.15;;;;;;;16.53;100.00;101333.75;6316582;28;20051;-81
2021/09/25 08:37:11;;;;;;;7.15;3.53;;;;;;;16.57;100.00;101335.25;6314032;28;20044;-82
2021/09/25 08:40:14;;;;;;;8.02;3.70;;;;;;;16.59;100.00;101338.66;6313402;28;20036;-83
2021/09/25 08:43:17;;;;;;;7.25;3.50;;;;;;;16.60;100.00;101341.19;6304926;28;20056;-83
2021/09/25 08:46:19;;;;;;;8.48;3.92;;;;;;;16.63;100.00;101342.81;6301201;28;20527;-82
2021/09/25 08:49:20;;;;;;;5.55;3.20;;;;;;;16.71;100.00;101340.44;6300720;28;20052;-81
2021/09/25 08:52:22;;;;;;;7.47;3.75;;;;;;;16.76;100.00;101346.34;6301289;28;20053;-82
2021/09/25 08:55:23;;;;;;;7.00;3.85;;;;;;;16.80;100.00;101346.94;6300657;28;20053;-82
2021/09/25 08:58:26;;;;;;;7.13;2.95;;;;;;;16.81;100.00;101351.34;6299917;28;20060;-82
2021/09/25 09:01:29;;;;;;;7.90;3.63;;;;;;;16.82;100.00;101345.91;6304215;28;20040;-82
2021/09/25 09:04:41;;;;;;;7.65;4.85;;;;;;;16.90;100.00;101345.38;6303505;28;20081;-81
2021/09/25 09:07:46;;;;;;;9.02;3.83;;;;;;;16.92;100.00;101346.09;6317087;28;20049;-81
2021/09/25 09:10:47;;;;;;;8.38;3.60;;;;;;;16.90;100.00;101335.59;6308289;28;20052;-82
2021/09/25 09:13:52;;;;;;;8.40;3.90;;;;;;;16.95;100.00;101337.94;6313251;28;20056;-81
2021/09/25 09:16:56;;;;;;;8.07;3.47;;;;;;;16.96;100.00;101344.94;6323452;28;20044;-82
2021/09/25 09:20:07;;;;;;;6.95;4.45;;;;;;;17.01;100.00;101345.44;6325262;28;20044;-83
2021/09/25 09:23:13;;;;;;;6.45;3.30;;;;;;;17.08;100.00;101341.41;6324216;28;20498;-82
2021/09/25 09:26:17;;;;;;;8.27;4.10;;;;;;;17.23;100.00;101336.81;6301113;28;20048;-84
2021/09/25 09:29:20;;;;;;;9.77;3.80;;;;;;;17.43;100.00;101333.53;6299733;28;20649;-84
2021/09/25 09:32:24;;;;;;;12.95;6.20;;;;;;;17.51;100.00;101343.63;6300117;28;20048;-84
2021/09/25 09:35:25;;;;;;;7.13;3.40;;;;;;;17.48;100.00;101339.38;6320285;28;20056;-84
2021/09/25 09:38:26;;;;;;;7.07;3.92;;;;;;;17.55;100.00;101339.78;6301007;28;20495;-78
2021/09/25 09:41:30;;;;;;;9.23;5.45;;;;;;;17.61;100.00;101344.66;6310093;28;20051;-79
2021/09/25 09:44:33;;;;;;;6.95;4.07;;;;;;;17.59;100.00;101343.06;6302287;28;20415;-83
2021/09/25 09:47:43;;;;;;;10.38;5.15;;;;;;;17.69;100.00;101344.94;6303967;28;20515;-84
2021/09/25 09:50:44;;;;;;;8.32;3.53;;;;;;;17.77;100.00;101346.22;6304575;28;20414;-84
2021/09/25 09:53:49;;;;;;;10.73;4.45;;;;;;;17.72;100.00;101342.06;6304214;28;20049;-85
2021/09/25 09:56:53;;;;;;;8.05;3.58;;;;;;;17.82;100.00;101330.78;6304749;28;20048;-85
2021/09/25 09:59:56;;;;;;;8.88;3.78;;;;;;;17.80;100.00;101327.38;6314544;28;20055;-83
2021/09/25 10:02:58;;;;;;;7.28;4.05;;;;;;;17.88;100.00;101333.81;6315875;28;20059;-83
2021/09/25 10:06:00;;;;;;;6.10;3.25;;;;;;;17.99;100.00;101341.00;6313171;28;20048;-82
2021/09/25 10:09:02;;;;;;;7.60;3.50;;;;;;;18.00;100.00;101343.53;6314619;28;20059;-82
2021/09/25 10:12:05;;;;;;;9.10;3.85;;;;;;;18.15;100.00;101346.84;6312018;28;20055;-81
2021/09/25 10:15:09;;;;;;;10.15;3.58;;;;;;;18.25;100.00;101355.81;6300228;28;20055;-83
2021/09/25 10:18:10;;;;;;;5.80;3.15;;;;;;;18.21;100.00;101351.72;6299415;28;20512;-83
2021/09/25 10:21:13;;;;;;;6.68;3.55;;;;;;;18.22;100.00;101348.09;6299384;28;20408;-83
2021/09/25 10:24:21;;;;;;;6.18;3.55;;;;;;;18.25;100.00;101347.84;6298509;28;20049;-82
2021/09/25 10:27:26;;;;;;;10.57;4.95;;;;;;;18.25;100.00;101350.50;6297548;28;20512;-76
2021/09/25 10:30:36;;;;;;;7.43;3.63;;;;;;;18.30;100.00;101354.63;6304321;28;20049;-85
2021/09/25 10:33:42;;;;;;;7.22;3.55;;;;;;;18.34;100.00;101348.94;6304051;28;20048;-82
2021/09/25 10:36:48;;;;;;;8.20;4.18;;;;;;;18.46;100.00;101363.16;6304478;28;20048;-83
2021/09/25 10:39:58;;;;;;;9.05;3.97;;;;;;;18.49;100.00;101360.25;6320872;28;20187;-83
2021/09/25 10:43:04;;;;;;;11.60;3.83;;;;;;;18.48;100.00;101363.88;6320386;28;20435;-79
2021/09/25 10:46:10;;;;;;;7.50;3.90;;;;;;;18.56;100.00;101368.59;6321407;28;20060;-83
2021/09/25 10:49:14;;;;;;;5.97;3.70;;;;;;;18.55;100.00;101367.75;6328142;28;20051;-82
2021/09/25 10:52:18;;;;;;;9.18;4.05;;;;;;;18.60;100.00;101367.41;6327422;28;20048;-81
2021/09/25 10:55:26;;;;;;;7.68;3.22;;;;;;;18.84;100.00;101356.69;6326763;28;20048;-81
2021/09/25 10:58:31;;;;;;;7.65;4.10;;;;;;;19.00;100.00;101341.22;6319152;28;20500;-80
2021/09/25 11:01:35;;;;;;;7.30;2.97;;;;;;;19.04;100.00;101353.31;6326856;28;20044;-81
2021/09/25 11:04:36;;;;;;;6.18;3.67;;;;;;;19.24;100.00;101357.88;6326884;28;20415;-81
2021/09/25 11:07:41;;;;;;;11.10;4.43;;;;;;;19.28;98.22;101355.84;6327069;28;20064;-79
2021/09/25 11:11:05;;;;;;;5.32;3.67;;;;;;;19.25;98.23;101362.25;6314625;28;20048;-81
2021/09/25 11:14:08;;;;;;;7.53;3.63;;;;;;;19.21;99.89;101367.94;6313207;28;20045;-82
2021/09/25 11:17:25;;;;;;;9.88;4.65;;;;;;;19.27;97.93;101370.97;6324659;28;20513;-80
2021/09/25 11:20:33;;;;;;;6.57;3.80;;;;;;;19.12;100.00;101376.66;6326426;28;20543;-81
2021/09/25 11:23:45;;;;;;;7.22;4.05;;;;;;;18.98;100.00;101372.44;6326988;28;20426;-81
2021/09/25 11:26:46;;;;;;;6.95;3.90;;;;;;;19.10;100.00;101366.13;6326330;28;20048;-80
2021/09/25 11:29:58;;;;;;;8.73;4.05;;;;;;;19.26;100.00;101369.28;6326566;28;20055;-81
2021/09/25 11:33:02;;;;;;;6.20;2.90;;;;;;;19.25;100.00;101366.72;6327948;28;20048;-81
2021/09/25 11:36:07;;;;;;;5.55;3.30;;;;;;;19.16;100.00;101370.13;6326683;28;20047;-81
2021/09/25 11:39:08;;;;;;;6.38;3.22;;;;;;;19.12;100.00;101372.22;6327060;28;20052;-80
2021/09/25 11:42:12;;;;;;;6.43;3.85;;;;;;;19.18;100.00;101371.72;6323228;28;20486;-80
2021/09/25 11:45:17;;;;;;;9.20;2.90;;;;;;;19.43;100.00;101375.91;6324244;28;20048;-81
2021/09/25 11:48:23;;;;;;;6.05;3.50;;;;;;;19.56;99.33;101364.25;6318177;28;20123;-80
2021/09/25 11:51:25;;;;;;;8.10;3.17;;;;;;;19.66;97.58;101367.91;6321367;28;20040;-80
2021/09/25 11:54:26;;;;;;;6.72;3.38;;;;;;;19.71;95.56;101366.56;6326716;28;20052;-80
2021/09/25 11:57:28;;;;;;;6.65;3.67;;;;;;;19.79;96.01;101367.75;6326593;28;20044;-81
2021/09/25 12:00:32;;;;;;;5.25;3.30;;;;;;;19.75;97.13;101369.81;6326587;28;20047;-81
2021/09/25 12:03:39;;;;;;;3.67;2.40;;;;;;;19.68;98.67;101356.16;6312778;28;20562;-79
2021/09/25 12:06:51;;;;;;;5.95;3.35;;;;;;;19.79;97.53;101349.91;6302519;28;20467;-81
2021/09/25 12:09:53;;;;;;;8.85;3.35;;;;;;;20.01;97.01;101349.81;6321336;28;20045;-81
2021/09/25 12:13:00;;;;;;;4.70;2.95;;;;;;;19.90;95.98;101349.91;6317134;28;20055;-75
2021/09/25 12:16:03;;;;;;;8.00;2.97;;;;;;;19.61;98.00;101352.28;6315007;28;20048;-79
2021/09/25 12:19:06;;;;;;;5.75;3.17;;;;;;;19.56;99.09;101346.44;6315781;28;20495;-81
2021/09/25 12:22:18;;;;;;;7.63;3.33;;;;;;;19.42;99.75;101352.06;6318169;28;20051;-82
2021/09/25 12:25:20;;;;;;;8.75;3.17;;;;;;;19.38;99.52;101353.28;6328308;28;20051;-81
2021/09/25 12:28:39;;;;;;;8.20;3.45;;;;;;;19.70;99.29;101353.34;6316158;28;20055;-76
2021/09/25 12:31:40;;;;;;;6.22;3.38;;;;;;;20.24;94.68;101355.06;6298267;28;20048;-76
2021/09/25 12:34:49;;;;;;;5.15;3.08;;;;;;;20.25;93.25;101351.41;6309869;28;20284;-83
2021/09/25 12:37:51;;;;;;;;;;;;;;;20.07;93.66;101353.81;6305556;28;20048;-82
2021/09/25 12:40:57;;;;;;;5.93;3.22;;;;;;;19.97;95.95;101355.56;6302471;28;19927;-83
2021/09/25 12:44:01;;;;;;;5.22;2.88;;;;;;;19.95;98.01;101353.03;6326098;28;20046;-80
2021/09/25 12:47:03;;;;;;;3.72;2.72;;;;;;;19.86;99.07;101344.94;6327196;28;20495;-82
2021/09/25 12:50:21;;;;;;;7.13;3.92;;;;;;;19.83;98.73;101346.03;6326648;28;20048;-82
2021/09/25 12:53:22;;;;;;;4.47;2.13;;;;;;;19.87;100.00;101352.81;6325740;28;20055;-79
2021/09/25 12:56:24;;;;;;;5.40;2.97;;;;;;;19.88;100.00;101345.66;6325744;28;20055;-82
2021/09/25 12:59:28;;;;;;;4.22;2.33;;;;;;;19.83;100.00;101353.19;6326509;28;20048;-82
2021/09/25 13:02:32;;;;;;;4.78;2.55;;;;;;;19.81;100.00;101349.81;6326565;28;20130;-82
2021/09/25 13:05:34;;;;;;;4.22;2.58;;;;;;;19.82;100.00;101352.34;6325463;28;20051;-80
2021/09/25 13:08:36;;;;;;;6.20;3.20;;;;;;;19.84;98.49;101357.53;6326130;28;20055;-80
2021/09/25 13:11:37;;;;;;;7.45;3.55;;;;;;;19.77;97.03;101349.22;6327062;28;20052;-80
2021/09/25 13:14:39;;;;;;;5.53;2.78;;;;;;;19.73;97.56;101353.09;6326846;28;20059;-80
2021/09/25 13:17:43;;;;;;;4.22;2.60;;;;;;;19.70;98.22;101354.19;6326438;28;20074;-82
2021/09/25 13:20:45;;;;;;;4.53;2.45;;;;;;;19.63;97.46;101347.69;6326149;28;20051;-80
2021/09/25 13:23:57;;;;;;;5.45;2.97;;;;;;;19.58;96.99;101346.34;6326211;28;20063;-83
2021/09/25 13:26:58;;;;;;;3.55;2.30;;;;;;;19.50;97.65;101346.94;6326631;28;20055;-81
2021/09/25 13:30:00;;;;;;;3.70;2.15;;;;;;;19.56;98.56;101345.59;6327223;28;20044;-81
2021/09/25 13:33:02;;;;;;;5.60;2.03;;;;;;;19.51;99.75;101353.97;6327358;28;20134;-80
2021/09/25 13:36:05;;;;;;;5.32;2.63;;;;;;;19.55;99.73;101343.91;6327307;28;20059;-81
2021/09/25 13:39:07;;;;;;;3.97;1.90;;;;;;;19.59;98.45;101343.53;6327430;28;20051;-80
2021/09/25 13:42:09;;;;;;;5.10;3.30;;;;;;;19.75;98.16;101338.66;6327677;28;20047;-81
2021/09/25 13:45:11;;;;;;;5.22;2.08;;;;;;;19.86;98.17;101351.13;6327719;28;20051;-80
2021/09/25 13:48:13;;;;;;;6.00;2.78;;;;;;;20.06;96.19;101341.44;6329282;28;20126;-81
2021/09/25 13:51:15;;;;;;;5.78;2.88;;;;;;;20.22;94.00;101336.50;6326023;28;20055;-81
2021/09/25 13:54:17;;;;;;;4.63;2.20;;;;;;;20.33;93.70;101334.75;6322543;28;20165;-81
2021/09/25 13:57:18;;;;;;;4.70;2.60;;;;;;;20.58;92.45;101336.22;6322698;28;20055;-81
2021/09/25 14:00:20;;;;;;;3.22;1.88;;;;;;;20.94;92.44;101330.34;6323498;28;20048;-82